Time;durP1;ratioP1;P1;durP2;ratioP2;P2;SDS_P1;SDS_P2;PMS_P1;PMS_P2;Temp;Humidity;BMP_temperature;BMP_pressure;BME280_temperature;BME280_humidity;BME280_pressure;Samples;Min_cycle;Max_cycle;Signal;HPM_P1;HPM_P2
2021/11/25 00:02:19;;;;;;;48.38;21.95;;;4.60;99.90;;;;;;5019657;28;20024;-80
2021/11/25 00:04:46;;;;;;;39.75;19.90;;;4.60;99.90;;;;;;5061473;28;20029;-79
2021/11/25 00:07:12;;;;;;;45.30;21.52;;;4.50;99.90;;;;;;5060250;28;20493;-81
2021/11/25 00:09:39;;;;;;;44.80;20.88;;;4.40;99.90;;;;;;5036366;28;20044;-81
2021/11/25 00:12:06;;;;;;;41.13;20.38;;;4.40;99.90;;;;;;5071178;28;20481;-79
2021/11/25 00:14:33;;;;;;;48.55;22.65;;;4.40;99.90;;;;;;5073458;28;20051;-79
2021/11/25 00:17:00;;;;;;;48.65;25.08;;;4.40;99.90;;;;;;5037501;28;20393;-82
2021/11/25 00:19:26;;;;;;;52.63;27.85;;;4.40;99.90;;;;;;5049406;28;20040;-78
2021/11/25 00:21:53;;;;;;;47.53;23.33;;;4.40;99.90;;;;;;5062022;28;20024;-81
2021/11/25 00:24:19;;;;;;;49.22;25.35;;;4.40;99.90;;;;;;5038912;28;20036;-77
2021/11/25 00:26:46;;;;;;;47.00;22.27;;;4.40;99.90;;;;;;5055128;28;20032;-79
2021/11/25 00:29:12;;;;;;;50.92;23.23;;;4.40;99.90;;;;;;5037288;28;20520;-79
2021/11/25 00:32:15;;;;;;;50.08;25.08;;;4.40;99.90;;;;;;5052989;28;20409;-82
2021/11/25 00:34:42;;;;;;;43.03;19.63;;;4.40;99.90;;;;;;5035041;28;20045;-79
2021/11/25 00:37:08;;;;;;;47.88;22.02;;;4.40;99.90;;;;;;5034560;28;20515;-79
2021/11/25 00:39:35;;;;;;;48.90;22.13;;;4.40;99.90;;;;;;5039224;28;20032;-79
2021/11/25 00:42:01;;;;;;;49.10;23.05;;;4.40;99.90;;;;;;5066364;28;20037;-79
2021/11/25 00:44:28;;;;;;;53.40;26.65;;;4.40;99.90;;;;;;5019633;28;20056;-79
2021/11/25 00:46:54;;;;;;;53.05;25.60;;;4.50;99.90;;;;;;5034142;28;20037;-79
2021/11/25 00:49:21;;;;;;;55.20;26.35;;;4.50;99.90;;;;;;5041696;28;20068;-79
2021/11/25 00:51:47;;;;;;;46.05;22.75;;;4.50;99.90;;;;;;5072261;28;20036;-79
2021/11/25 00:54:14;;;;;;;44.72;22.30;;;4.50;99.90;;;;;;5048507;28;20036;-78
2021/11/25 00:56:41;;;;;;;43.08;21.05;;;4.50;99.90;;;;;;5045892;28;20533;-78
2021/11/25 00:59:07;;;;;;;49.63;23.20;;;4.50;99.90;;;;;;5071898;28;20032;-78
2021/11/25 01:01:34;;;;;;;48.20;21.73;;;4.50;99.90;;;;;;5071140;28;20028;-78
2021/11/25 01:04:00;;;;;;;46.05;21.95;;;4.50;99.90;;;;;;5017022;28;20860;-78
2021/11/25 01:06:27;;;;;;;52.28;23.48;;;4.40;99.90;;;;;;5060029;28;20025;-78
2021/11/25 01:08:55;;;;;;;48.55;22.58;;;4.40;99.90;;;;;;5050408;28;20044;-80
2021/11/25 01:11:25;;;;;;;52.57;23.40;;;4.40;99.90;;;;;;5068726;28;20052;-79
2021/11/25 01:13:54;;;;;;;47.50;23.52;;;4.40;99.90;;;;;;5036490;28;20501;-80
2021/11/25 01:16:22;;;;;;;45.30;22.58;;;4.30;99.90;;;;;;5068762;28;20040;-79
2021/11/25 01:18:49;;;;;;;47.15;21.98;;;4.30;99.90;;;;;;5020469;28;20041;-78
2021/11/25 01:21:17;;;;;;;42.88;20.75;;;4.30;99.90;;;;;;5049527;28;20025;-78
2021/11/25 01:23:43;;;;;;;48.42;23.45;;;4.20;99.90;;;;;;5038275;28;20044;-78
2021/11/25 01:26:10;;;;;;;42.38;20.38;;;4.20;99.90;;;;;;5064526;28;20362;-78
2021/11/25 01:28:36;;;;;;;44.78;20.63;;;4.10;99.90;;;;;;5037073;28;20037;-78
2021/11/25 01:31:03;;;;;;;48.38;23.42;;;4.10;99.90;;;;;;5054767;28;20381;-78
2021/11/25 01:33:31;;;;;;;49.45;23.15;;;4.10;99.90;;;;;;5054019;28;20033;-78
2021/11/25 01:35:59;;;;;;;46.25;22.60;;;4.10;99.90;;;;;;5070832;28;20028;-78
2021/11/25 01:38:26;;;;;;;46.08;22.58;;;4.10;99.90;;;;;;5014904;28;20032;-78
2021/11/25 01:40:53;;;;;;;50.25;21.90;;;4.10;99.90;;;;;;5062987;28;20141;-78
2021/11/25 01:43:22;;;;;;;50.42;22.05;;;4.20;99.90;;;;;;5021686;28;20036;-78
2021/11/25 01:45:57;;;;;;;49.20;21.88;;;4.20;99.90;;;;;;5070968;28;20036;-78
2021/11/25 01:48:24;;;;;;;44.35;20.77;;;4.30;99.90;;;;;;5083795;28;20486;-78
2021/11/25 01:50:51;;;;;;;44.83;21.05;;;4.30;99.90;;;;;;5053941;28;20373;-78
2021/11/25 01:53:19;;;;;;;44.92;20.85;;;4.40;99.90;;;;;;5050830;28;20049;-78
2021/11/25 01:55:46;;;;;;;43.67;20.77;;;4.40;99.90;;;;;;5053989;28;20033;-78
2021/11/25 01:58:13;;;;;;;48.47;20.58;;;4.50;99.90;;;;;;5036420;28;20043;-78
2021/11/25 02:00:49;;;;;;;45.00;23.27;;;4.50;99.90;;;;;;5045256;28;20040;-78
2021/11/25 02:03:16;;;;;;;46.97;21.90;;;4.50;99.90;;;;;;5052159;28;20037;-78
2021/11/25 02:05:44;;;;;;;52.47;24.60;;;4.50;99.90;;;;;;5036803;28;20028;-79
2021/11/25 02:08:11;;;;;;;55.38;24.85;;;4.60;99.90;;;;;;5069177;28;20066;-79
2021/11/25 02:10:47;;;;;;;52.67;24.33;;;4.60;99.90;;;;;;5047242;28;20044;-78
2021/11/25 02:13:14;;;;;;;50.63;23.65;;;4.60;99.90;;;;;;5052341;28;20039;-78
2021/11/25 02:15:41;;;;;;;47.63;22.08;;;4.70;99.90;;;;;;5057155;28;20404;-78
2021/11/25 02:18:14;;;;;;;55.20;24.05;;;4.70;99.90;;;;;;5050702;28;20032;-78
2021/11/25 02:20:48;;;;;;;48.75;22.48;;;4.70;99.90;;;;;;5052872;28;20040;-79
2021/11/25 02:23:15;;;;;;;49.70;21.87;;;4.70;99.90;;;;;;5070873;28;20029;-78
2021/11/25 02:25:42;;;;;;;44.45;21.88;;;4.70;99.90;;;;;;5036669;28;20040;-78
2021/11/25 02:28:09;;;;;;;49.95;25.02;;;4.70;99.90;;;;;;5070800;28;20036;-78
2021/11/25 02:30:36;;;;;;;49.28;22.80;;;4.70;99.90;;;;;;5051961;28;20059;-78
2021/11/25 02:33:03;;;;;;;42.38;21.80;;;4.80;99.90;;;;;;5024747;28;20051;-78
2021/11/25 02:35:32;;;;;;;45.55;22.17;;;4.80;99.90;;;;;;5039373;28;20044;-78
2021/11/25 02:37:59;;;;;;;47.67;22.88;;;4.80;99.90;;;;;;5052395;28;20404;-78
2021/11/25 02:40:43;;;;;;;46.05;23.92;;;4.80;99.90;;;;;;5051752;28;20037;-78
2021/11/25 02:43:13;;;;;;;52.40;23.33;;;4.80;99.90;;;;;;5064760;28;20039;-78
2021/11/25 02:45:53;;;;;;;50.47;24.73;;;4.80;99.90;;;;;;5039317;28;20036;-78
2021/11/25 02:48:22;;;;;;;46.30;23.20;;;4.70;99.90;;;;;;5051445;28;20056;-78
2021/11/25 02:50:51;;;;;;;50.17;24.48;;;4.70;99.90;;;;;;5053778;28;20032;-78
2021/11/25 02:53:24;;;;;;;44.80;22.40;;;4.70;99.90;;;;;;5051753;28;20044;-78
2021/11/25 02:55:55;;;;;;;43.33;21.48;;;4.70;99.90;;;;;;5050498;28;20028;-78
2021/11/25 02:58:22;;;;;;;50.60;24.92;;;4.70;99.90;;;;;;5050310;28;20040;-78
2021/11/25 03:00:50;;;;;;;43.63;21.90;;;4.70;99.90;;;;;;5035404;28;20355;-78
2021/11/25 03:03:17;;;;;;;51.08;23.42;;;4.70;99.90;;;;;;5052046;28;20036;-78
2021/11/25 03:05:47;;;;;;;53.55;23.70;;;4.70;99.90;;;;;;5034729;28;20051;-78
2021/11/25 03:08:14;;;;;;;42.13;22.27;;;4.80;99.90;;;;;;5041992;28;20040;-78
2021/11/25 03:10:49;;;;;;;45.78;23.05;;;4.80;99.90;;;;;;5035026;28;20462;-78
2021/11/25 03:13:18;;;;;;;51.60;24.88;;;4.80;99.90;;;;;;5048919;28;20489;-78
2021/11/25 03:15:45;;;;;;;47.47;23.63;;;4.80;99.90;;;;;;5033651;28;20051;-78
2021/11/25 03:18:13;;;;;;;46.03;23.52;;;4.80;99.90;;;;;;5049607;28;20057;-78
2021/11/25 03:20:43;;;;;;;53.20;25.02;;;4.80;99.90;;;;;;5070169;28;20029;-78
2021/11/25 03:23:11;;;;;;;51.72;23.70;;;4.80;99.90;;;;;;5019416;28;20496;-78
2021/11/25 03:25:39;;;;;;;47.38;24.00;;;4.80;99.90;;;;;;5034709;28;20040;-78
2021/11/25 03:28:06;;;;;;;50.25;24.73;;;4.80;99.90;;;;;;5049792;28;20044;-78
2021/11/25 03:30:34;;;;;;;50.40;24.90;;;4.90;99.90;;;;;;5065610;28;20040;-78
2021/11/25 03:33:02;;;;;;;45.83;23.23;;;4.90;99.90;;;;;;5035286;28;20036;-78
2021/11/25 03:35:29;;;;;;;45.17;22.65;;;4.90;99.90;;;;;;5018929;28;20041;-78
2021/11/25 03:37:56;;;;;;;50.05;26.20;;;4.90;99.90;;;;;;5034334;28;20044;-78
2021/11/25 03:40:24;;;;;;;49.78;25.15;;;4.90;99.90;;;;;;5052891;28;20037;-78
2021/11/25 03:42:50;;;;;;;50.53;26.10;;;4.90;99.90;;;;;;5048157;28;20029;-78
2021/11/25 03:45:17;;;;;;;48.72;26.08;;;4.90;99.90;;;;;;5061437;28;20036;-78
2021/11/25 03:47:45;;;;;;;43.63;23.15;;;4.90;99.90;;;;;;5050110;28;20044;-78
2021/11/25 03:50:13;;;;;;;48.08;26.70;;;4.90;99.90;;;;;;5068822;28;20055;-78
2021/11/25 03:52:40;;;;;;;45.58;24.83;;;4.90;99.90;;;;;;5067815;28;20416;-78
2021/11/25 03:55:10;;;;;;;50.20;25.67;;;5.00;99.90;;;;;;5029828;28;20055;-78
2021/11/25 03:57:37;;;;;;;48.90;25.30;;;5.00;99.90;;;;;;5064637;28;20080;-78
2021/11/25 04:00:06;;;;;;;50.03;28.83;;;5.00;99.90;;;;;;5024840;28;20489;-78
2021/11/25 04:02:40;;;;;;;53.22;28.70;;;5.00;99.90;;;;;;5031946;28;20029;-77
2021/11/25 04:05:08;;;;;;;46.85;26.00;;;5.00;99.90;;;;;;5057508;28;20037;-78
2021/11/25 04:07:35;;;;;;;48.17;28.00;;;5.00;99.90;;;;;;5050932;28;20040;-77
2021/11/25 04:10:02;;;;;;;48.70;25.83;;;5.00;99.90;;;;;;5067972;28;20429;-77
2021/11/25 04:12:29;;;;;;;48.42;27.60;;;5.00;99.90;;;;;;5040921;28;20048;-77
2021/11/25 04:14:55;;;;;;;46.72;26.45;;;5.00;99.90;;;;;;5047792;28;20033;-78
2021/11/25 04:17:23;;;;;;;45.88;25.45;;;5.00;99.90;;;;;;5020937;28;20429;-78
2021/11/25 04:19:51;;;;;;;46.65;28.05;;;5.10;99.90;;;;;;5035262;28;20041;-78
2021/11/25 04:22:21;;;;;;;46.70;26.13;;;5.10;99.90;;;;;;5050798;28;20044;-77
2021/11/25 04:24:49;;;;;;;50.75;26.33;;;5.10;99.90;;;;;;5049508;28;20155;-77
2021/11/25 04:27:16;;;;;;;42.92;25.98;;;5.10;99.90;;;;;;5035888;28;20048;-78
2021/11/25 04:29:46;;;;;;;40.58;26.17;;;5.10;99.90;;;;;;5035429;28;20059;-78
2021/11/25 04:37:43;;;;;;;40.28;24.50;;;5.00;99.90;;;;;;5030140;28;20040;-78
2021/11/25 04:40:11;;;;;;;43.25;25.48;;;5.00;99.90;;;;;;5068994;28;20055;-78
2021/11/25 04:42:37;;;;;;;41.13;24.73;;;5.10;99.90;;;;;;5047732;28;20033;-78
2021/11/25 04:45:05;;;;;;;42.00;25.15;;;5.10;99.90;;;;;;5069335;28;20051;-78
2021/11/25 04:47:32;;;;;;;45.55;26.73;;;5.10;99.90;;;;;;5052376;28;20500;-78
2021/11/25 04:49:58;;;;;;;41.67;24.58;;;5.10;99.90;;;;;;5027415;28;20386;-78
2021/11/25 04:52:25;;;;;;;42.85;26.35;;;5.10;99.90;;;;;;5014339;28;20040;-78
2021/11/25 04:54:51;;;;;;;38.20;23.15;;;5.10;99.90;;;;;;5031513;28;20088;-78
2021/11/25 04:57:18;;;;;;;40.05;23.02;;;5.10;99.90;;;;;;5018310;28;20060;-78
2021/11/25 04:59:44;;;;;;;41.65;26.10;;;5.10;99.90;;;;;;4992466;28;20052;-78
2021/11/25 05:02:11;;;;;;;45.67;29.85;;;5.10;99.90;;;;;;5017703;28;20070;-78
2021/11/25 05:04:38;;;;;;;43.92;26.95;;;5.10;99.90;;;;;;5020301;28;20037;-78
2021/11/25 05:07:04;;;;;;;47.45;30.08;;;5.10;99.90;;;;;;4999883;28;20049;-78
2021/11/25 05:09:30;;;;;;;40.88;28.35;;;5.10;99.90;;;;;;5023739;28;20482;-78
2021/11/25 05:11:57;;;;;;;44.70;29.23;;;5.10;99.90;;;;;;5033924;28;20044;-78
2021/11/25 05:14:23;;;;;;;41.83;25.50;;;5.20;99.90;;;;;;5034873;28;20048;-78
2021/11/25 05:16:50;;;;;;;43.40;29.25;;;5.20;99.90;;;;;;5026037;28;20060;-78
2021/11/25 05:19:18;;;;;;;44.97;29.05;;;5.20;99.90;;;;;;5051897;28;20378;-78
2021/11/25 05:21:46;;;;;;;38.65;26.05;;;5.20;99.90;;;;;;5033505;28;20037;-78
2021/11/25 05:24:12;;;;;;;41.58;27.52;;;5.20;99.90;;;;;;5036732;28;20359;-78
2021/11/25 05:26:38;;;;;;;41.42;26.83;;;5.20;99.90;;;;;;5051357;28;20036;-78
2021/11/25 05:29:05;;;;;;;41.95;27.58;;;5.20;99.90;;;;;;5020862;28;20033;-78
2021/11/25 05:31:31;;;;;;;42.70;28.63;;;5.20;99.90;;;;;;5035370;28;20041;-78
2021/11/25 05:33:58;;;;;;;44.90;29.63;;;5.20;99.90;;;;;;5048896;28;20033;-78
2021/11/25 05:36:24;;;;;;;44.85;29.98;;;5.20;99.90;;;;;;5034519;28;20041;-77
2021/11/25 05:38:51;;;;;;;52.70;32.45;;;5.20;99.90;;;;;;5033748;28;20397;-78
2021/11/25 05:41:17;;;;;;;45.97;28.88;;;5.20;99.90;;;;;;5017253;28;20509;-78
2021/11/25 05:43:44;;;;;;;43.38;29.17;;;5.10;99.90;;;;;;5018027;28;20040;-78
2021/11/25 05:46:10;;;;;;;47.17;30.75;;;5.20;99.90;;;;;;5051106;28;20037;-77
2021/11/25 05:48:36;;;;;;;47.55;30.48;;;5.20;99.90;;;;;;5048788;28;20060;-77
2021/11/25 05:51:03;;;;;;;45.75;30.10;;;5.20;99.90;;;;;;5046376;28;20041;-77
2021/11/25 05:53:29;;;;;;;52.15;32.40;;;5.20;99.90;;;;;;5036454;28;20041;-77
2021/11/25 05:55:56;;;;;;;50.05;32.67;;;5.20;99.90;;;;;;5013984;28;20040;-77
2021/11/25 05:58:22;;;;;;;48.35;31.80;;;5.20;99.90;;;;;;5024046;28;20060;-77
2021/11/25 06:00:49;;;;;;;50.28;32.05;;;5.20;99.90;;;;;;5004477;28;20030;-77
2021/11/25 06:03:16;;;;;;;47.17;31.17;;;5.10;99.90;;;;;;5037813;28;20472;-77
2021/11/25 06:05:43;;;;;;;47.45;31.45;;;5.10;99.90;;;;;;5057944;28;20031;-77
2021/11/25 06:08:09;;;;;;;49.35;32.47;;;5.20;99.90;;;;;;5040023;28;20037;-77
2021/11/25 06:10:36;;;;;;;50.47;31.40;;;5.20;99.90;;;;;;5002632;28;20045;-77
2021/11/25 06:13:02;;;;;;;44.30;29.95;;;5.10;99.90;;;;;;5054579;28;20048;-77
2021/11/25 06:15:29;;;;;;;43.70;29.33;;;5.10;99.90;;;;;;5046301;28;20036;-77
2021/11/25 06:17:56;;;;;;;47.00;30.42;;;5.10;99.90;;;;;;5036404;28;20044;-77
2021/11/25 06:20:23;;;;;;;46.60;30.48;;;5.10;99.90;;;;;;5042340;28;20059;-77
2021/11/25 06:22:51;;;;;;;44.33;29.15;;;5.10;99.90;;;;;;5045956;28;20029;-77
2021/11/25 06:25:20;;;;;;;47.05;30.48;;;5.00;99.90;;;;;;5060583;28;20029;-77
2021/11/25 06:27:47;;;;;;;43.72;28.05;;;5.00;99.90;;;;;;5033868;28;20041;-75
2021/11/25 06:30:14;;;;;;;42.00;26.83;;;5.00;99.90;;;;;;5043287;28;20047;-76
2021/11/25 06:32:44;;;;;;;43.53;28.38;;;5.00;99.90;;;;;;5035435;28;20033;-76
2021/11/25 06:35:13;;;;;;;44.90;28.00;;;4.90;99.90;;;;;;5037087;28;20041;-76
2021/11/25 06:37:44;;;;;;;41.97;27.67;;;4.90;99.90;;;;;;5055861;28;20587;-81
2021/11/25 06:40:12;;;;;;;42.78;27.50;;;4.90;99.90;;;;;;5050455;28;20036;-78
2021/11/25 06:42:38;;;;;;;47.47;31.42;;;4.90;99.90;;;;;;5018526;28;20040;-80
2021/11/25 06:45:06;;;;;;;49.40;31.58;;;5.00;99.90;;;;;;5037673;28;20040;-78
2021/11/25 06:47:32;;;;;;;48.47;31.50;;;4.90;99.90;;;;;;5053879;28;20036;-77
2021/11/25 06:49:59;;;;;;;47.97;31.52;;;4.90;99.90;;;;;;5049018;28;20762;-78
2021/11/25 06:52:25;;;;;;;49.20;31.95;;;4.90;99.90;;;;;;5048856;28;20041;-78
2021/11/25 06:54:51;;;;;;;47.88;32.72;;;4.90;99.90;;;;;;5035768;28;20481;-79
2021/11/25 06:57:18;;;;;;;49.13;31.98;;;5.00;99.90;;;;;;5048283;28;20029;-80
2021/11/25 06:59:44;;;;;;;49.78;32.10;;;5.00;99.90;;;;;;5036440;28;20044;-78
2021/11/25 07:02:11;;;;;;;47.78;31.27;;;5.00;99.90;;;;;;5069658;28;20029;-79
2021/11/25 07:04:37;;;;;;;48.70;31.98;;;5.00;99.90;;;;;;5026005;28;20484;-78
2021/11/25 07:07:04;;;;;;;41.30;27.42;;;5.00;99.90;;;;;;5070425;28;20036;-78
2021/11/25 07:09:30;;;;;;;40.00;25.95;;;5.00;99.90;;;;;;5051584;28;20040;-78
2021/11/25 07:11:57;;;;;;;44.88;29.27;;;5.00;99.90;;;;;;5025163;28;20059;-78
2021/11/25 07:14:23;;;;;;;45.85;30.60;;;5.00;99.90;;;;;;5019645;28;20477;-79
2021/11/25 07:16:50;;;;;;;44.28;28.73;;;5.00;99.90;;;;;;5048993;28;20486;-76
2021/11/25 07:19:16;;;;;;;46.15;30.08;;;5.00;99.90;;;;;;5048983;28;20072;-76
2021/11/25 07:21:43;;;;;;;44.00;29.23;;;5.00;99.90;;;;;;5027946;28;20029;-76
2021/11/25 07:24:09;;;;;;;44.90;30.48;;;5.00;99.90;;;;;;5068812;28;20036;-76
2021/11/25 07:26:35;;;;;;;46.42;30.95;;;5.00;99.90;;;;;;5051305;28;20037;-76
2021/11/25 07:29:02;;;;;;;42.42;28.45;;;5.00;99.90;;;;;;5063478;28;20048;-76
2021/11/25 07:31:29;;;;;;;44.80;29.92;;;5.00;99.90;;;;;;5055875;28;20124;-76
2021/11/25 07:33:56;;;;;;;42.75;29.13;;;5.00;99.90;;;;;;5051992;28;20036;-76
2021/11/25 07:36:24;;;;;;;43.60;29.92;;;5.00;99.90;;;;;;5051149;28;20032;-75
2021/11/25 07:38:50;;;;;;;39.88;28.30;;;5.00;99.90;;;;;;5046463;28;20040;-76
2021/11/25 07:41:17;;;;;;;44.17;29.92;;;5.00;99.90;;;;;;5036674;28;20041;-77
2021/11/25 07:43:44;;;;;;;41.25;28.33;;;5.00;99.90;;;;;;5070258;28;20028;-78
2021/11/25 07:46:11;;;;;;;42.08;28.73;;;5.00;99.90;;;;;;5033359;28;20032;-78
2021/11/25 07:48:37;;;;;;;41.10;26.77;;;5.10;99.90;;;;;;5044389;28;20044;-78
2021/11/25 07:51:04;;;;;;;37.78;25.65;;;5.10;99.90;;;;;;5051506;28;20033;-78
2021/11/25 07:53:30;;;;;;;38.70;27.98;;;5.10;99.90;;;;;;5051133;28;20043;-78
2021/11/25 07:55:57;;;;;;;41.03;29.73;;;5.10;99.90;;;;;;5050613;28;20032;-78
2021/11/25 07:58:23;;;;;;;44.75;30.75;;;5.20;99.90;;;;;;5053272;28;20055;-78
2021/11/25 08:00:50;;;;;;;42.22;29.02;;;5.20;99.90;;;;;;5033552;28;20044;-78
2021/11/25 08:03:16;;;;;;;45.80;32.40;;;5.20;99.90;;;;;;5069853;28;20032;-79
2021/11/25 08:05:43;;;;;;;40.33;28.48;;;5.30;99.90;;;;;;5034220;28;20028;-78
2021/11/25 08:08:09;;;;;;;41.25;28.42;;;5.30;99.90;;;;;;5046239;28;20511;-79
2021/11/25 08:10:36;;;;;;;40.42;28.25;;;5.30;99.90;;;;;;5051899;28;20462;-79
2021/11/25 08:13:04;;;;;;;41.95;27.90;;;5.40;99.90;;;;;;5060514;28;20041;-80
2021/11/25 08:15:37;;;;;;;45.55;29.08;;;5.40;99.90;;;;;;5050578;28;20032;-79
2021/11/25 08:18:03;;;;;;;;;;;5.40;99.90;;;;;;5020971;28;20340;-79
2021/11/25 08:20:30;;;;;;;40.35;26.27;;;5.50;99.90;;;;;;5034681;28;19912;-79
2021/11/25 08:22:56;;;;;;;39.78;26.70;;;5.50;99.90;;;;;;5052182;28;20037;-77
2021/11/25 08:25:24;;;;;;;38.85;28.15;;;5.50;99.90;;;;;;5044609;28;20041;-76
2021/11/25 08:27:56;;;;;;;38.13;28.17;;;5.50;99.90;;;;;;5032066;28;20025;-76
2021/11/25 08:30:24;;;;;;;42.17;28.98;;;5.60;99.90;;;;;;5049195;28;20036;-78
2021/11/25 08:32:50;;;;;;;41.45;29.27;;;5.60;99.90;;;;;;5073838;28;20051;-79
2021/11/25 08:35:17;;;;;;;43.63;31.00;;;5.60;99.90;;;;;;5072206;28;20369;-79
2021/11/25 08:37:44;;;;;;;43.65;31.40;;;5.60;99.90;;;;;;5041561;28;20037;-79
2021/11/25 08:40:15;;;;;;;45.50;30.65;;;5.60;99.90;;;;;;5071262;28;20044;-79
2021/11/25 08:42:43;;;;;;;43.75;30.15;;;5.60;99.90;;;;;;5055051;28;20111;-79
2021/11/25 08:45:10;;;;;;;45.97;32.42;;;5.60;99.90;;;;;;5054881;28;20048;-79
2021/11/25 08:47:37;;;;;;;43.50;29.00;;;5.70;99.90;;;;;;5070591;28;20032;-79
2021/11/25 08:50:06;;;;;;;47.60;33.97;;;5.70;99.90;;;;;;5053634;28;20413;-79
2021/11/25 08:52:33;;;;;;;44.25;31.80;;;5.70;99.90;;;;;;5053930;28;20380;-79
2021/11/25 08:54:59;;;;;;;43.17;31.27;;;5.70;99.90;;;;;;5039009;28;20037;-79
2021/11/25 08:57:26;;;;;;;40.58;29.88;;;5.70;99.90;;;;;;5072066;28;20037;-80
2021/11/25 08:59:52;;;;;;;45.03;32.78;;;5.80;99.90;;;;;;5073191;28;20048;-80
2021/11/25 09:02:19;;;;;;;45.88;33.05;;;5.80;99.90;;;;;;5017885;28;20043;-79
2021/11/25 09:04:46;;;;;;;47.25;33.75;;;5.90;99.90;;;;;;5053561;28;20033;-80
2021/11/25 09:07:12;;;;;;;42.67;29.73;;;5.90;99.90;;;;;;5072308;28;20029;-80
2021/11/25 09:09:39;;;;;;;40.53;30.13;;;6.00;99.90;;;;;;5032318;28;20041;-79
2021/11/25 09:12:05;;;;;;;47.13;32.88;;;6.00;99.90;;;;;;5021481;28;20037;-80
2021/11/25 09:14:32;;;;;;;58.08;40.00;;;6.10;99.90;;;;;;5055041;28;20040;-77
2021/11/25 09:16:58;;;;;;;46.17;33.80;;;6.20;99.90;;;;;;5068882;28;20049;-77
2021/11/25 09:19:28;;;;;;;45.05;33.25;;;6.20;99.90;;;;;;5053789;28;20051;-77
2021/11/25 09:21:55;;;;;;;46.80;33.17;;;6.30;99.90;;;;;;5036938;28;20043;-77
2021/11/25 09:24:22;;;;;;;51.13;36.88;;;6.30;99.90;;;;;;5072829;28;20048;-77
2021/11/25 09:26:48;;;;;;;44.97;31.90;;;6.40;99.90;;;;;;5069156;28;20477;-77
2021/11/25 09:29:15;;;;;;;47.45;33.25;;;6.40;99.90;;;;;;5053868;28;20359;-79
2021/11/25 09:31:42;;;;;;;48.45;33.25;;;6.40;99.90;;;;;;5056637;28;20033;-82
2021/11/25 09:34:09;;;;;;;42.60;30.27;;;6.50;99.90;;;;;;5028206;28;20040;-80
2021/11/25 09:36:38;;;;;;;44.53;31.95;;;6.50;99.90;;;;;;5037944;28;20048;-79
2021/11/25 09:39:06;;;;;;;43.25;30.73;;;6.50;99.90;;;;;;5005551;28;20041;-79
2021/11/25 09:41:34;;;;;;;42.75;31.52;;;6.50;99.90;;;;;;5024377;28;20020;-80
2021/11/25 09:44:05;;;;;;;46.15;32.08;;;6.50;99.90;;;;;;5019810;28;20057;-79
2021/11/25 09:46:34;;;;;;;42.13;30.85;;;6.50;99.90;;;;;;5071015;28;20060;-79
2021/11/25 09:49:00;;;;;;;45.97;31.70;;;6.50;99.90;;;;;;5034074;28;20056;-79
2021/11/25 09:51:27;;;;;;;45.60;33.00;;;6.40;99.90;;;;;;5054189;28;20044;-79
2021/11/25 09:53:56;;;;;;;48.00;33.78;;;6.40;99.90;;;;;;5045896;28;20040;-79
2021/11/25 09:56:23;;;;;;;50.63;34.00;;;6.30;99.90;;;;;;5070616;28;20032;-80
2021/11/25 09:58:51;;;;;;;43.05;31.33;;;6.30;99.90;;;;;;5050442;28;20047;-80
2021/11/25 10:01:21;;;;;;;46.05;34.75;;;6.30;99.90;;;;;;5035971;28;20032;-81
2021/11/25 10:03:50;;;;;;;43.15;31.85;;;6.20;99.90;;;;;;5071591;28;20401;-79
2021/11/25 10:06:18;;;;;;;42.20;32.45;;;6.20;99.90;;;;;;5054106;28;20039;-79
2021/11/25 10:08:48;;;;;;;47.20;33.10;;;6.20;99.90;;;;;;5068089;28;20071;-79
2021/11/25 10:11:23;;;;;;;48.45;34.08;;;6.20;99.90;;;;;;5036731;28;20055;-79
2021/11/25 10:13:55;;;;;;;47.63;34.13;;;6.20;99.90;;;;;;5071817;28;20730;-79
2021/11/25 10:16:25;;;;;;;46.13;33.67;;;6.20;99.90;;;;;;5049189;28;20036;-79
2021/11/25 10:18:52;;;;;;;40.38;30.13;;;6.30;99.90;;;;;;5049964;28;20043;-80
2021/11/25 10:21:21;;;;;;;60.50;42.47;;;6.30;99.90;;;;;;5070041;28;20035;-80
2021/11/25 10:23:51;;;;;;;52.08;36.55;;;6.30;99.90;;;;;;5037266;28;20044;-78
2021/11/25 10:26:24;;;;;;;50.60;35.03;;;6.30;99.90;;;;;;5071206;28;20508;-77
2021/11/25 10:29:11;;;;;;;45.08;32.15;;;6.30;99.90;;;;;;5068135;28;20362;-76
2021/11/25 10:31:43;;;;;;;44.80;31.60;;;6.30;99.90;;;;;;5031730;28;20239;-81
2021/11/25 10:34:19;;;;;;;45.42;31.05;;;6.40;99.90;;;;;;5068976;28;20036;-81
2021/11/25 10:42:01;;;;;;;47.78;35.28;;;6.30;99.90;;;;;;5053057;28;20029;-81
2021/11/25 10:44:39;;;;;;;44.80;31.42;;;6.30;99.90;;;;;;5070387;28;20489;-82
2021/11/25 10:47:12;;;;;;;45.35;31.90;;;6.40;99.90;;;;;;5066635;28;20037;-81
2021/11/25 10:49:49;;;;;;;48.83;33.28;;;6.40;99.90;;;;;;5070554;28;20036;-78
2021/11/25 10:52:29;;;;;;;44.80;33.53;;;6.40;99.90;;;;;;5033632;28;20036;-81
2021/11/25 10:55:15;;;;;;;43.55;30.48;;;6.40;99.90;;;;;;5070495;28;20360;-80
2021/11/25 10:57:56;;;;;;;46.17;31.75;;;6.40;99.90;;;;;;5047650;28;20458;-80
2021/11/25 11:00:36;;;;;;;49.03;33.75;;;6.30;99.90;;;;;;5051695;28;20063;-76
2021/11/25 11:03:22;;;;;;;44.20;33.08;;;6.30;99.90;;;;;;5068350;28;20032;-76
2021/11/25 11:06:04;;;;;;;48.13;33.17;;;6.20;99.90;;;;;;5034918;28;20047;-76
2021/11/25 11:08:43;;;;;;;49.78;34.25;;;6.20;99.90;;;;;;5067621;28;20033;-77
2021/11/25 11:11:11;;;;;;;61.80;42.13;;;6.20;99.90;;;;;;5032178;28;20051;-76
2021/11/25 11:14:10;;;;;;;50.92;35.45;;;6.20;99.90;;;;;;5052688;28;20033;-76
2021/11/25 11:16:42;;;;;;;58.22;37.85;;;6.30;99.90;;;;;;5050374;28;20036;-77
2021/11/25 11:19:12;;;;;;;55.90;37.53;;;6.50;99.90;;;;;;5065971;28;20159;-77
2021/11/25 11:21:52;;;;;;;55.17;36.67;;;6.60;99.90;;;;;;5069089;28;20024;-78
2021/11/25 11:24:20;;;;;;;57.58;38.90;;;6.70;99.90;;;;;;5036503;28;20036;-77
2021/11/25 11:27:02;;;;;;;55.88;36.58;;;6.80;99.90;;;;;;5042236;28;20029;-77
2021/11/25 11:29:31;;;;;;;60.20;38.47;;;6.90;99.90;;;;;;5050063;28;20050;-77
2021/11/25 11:32:02;;;;;;;54.83;35.47;;;6.90;99.90;;;;;;5051239;28;20039;-77
2021/11/25 11:34:29;;;;;;;72.35;46.03;;;7.00;99.90;;;;;;5052836;28;20032;-78
2021/11/25 11:36:57;;;;;;;63.13;39.08;;;7.10;99.90;;;;;;5056564;28;20028;-76
2021/11/25 11:39:27;;;;;;;58.05;39.35;;;7.10;99.90;;;;;;5038133;28;20043;-76
2021/11/25 11:41:57;;;;;;;61.13;38.90;;;7.10;99.90;;;;;;5059170;28;20029;-77
2021/11/25 11:44:25;;;;;;;61.10;39.78;;;7.10;99.90;;;;;;5049676;28;20473;-77
2021/11/25 11:47:02;;;;;;;60.17;38.05;;;7.10;99.90;;;;;;5043170;28;20021;-77
2021/11/25 11:49:29;;;;;;;59.95;38.08;;;7.20;99.90;;;;;;5043850;28;20497;-77
2021/11/25 11:52:23;;;;;;;55.67;36.40;;;7.20;99.90;;;;;;5033865;28;20040;-77
2021/11/25 11:54:54;;;;;;;61.30;38.88;;;7.10;99.90;;;;;;5035366;28;20396;-77
2021/11/25 11:57:39;;;;;;;61.88;38.78;;;7.20;99.90;;;;;;5047790;28;20864;-77
2021/11/25 12:00:29;;;;;;;56.63;35.90;;;7.20;99.90;;;;;;5033698;28;20040;-77
2021/11/25 12:02:57;;;;;;;58.05;36.40;;;7.30;99.90;;;;;;5068109;28;20039;-77
2021/11/25 12:05:39;;;;;;;59.33;39.60;;;7.30;99.90;;;;;;5051089;28;20028;-77
2021/11/25 12:08:21;;;;;;;65.10;41.08;;;7.40;99.90;;;;;;5071265;28;20525;-77
2021/11/25 12:10:57;;;;;;;60.53;39.20;;;7.50;99.90;;;;;;5051153;28;20045;-77
2021/11/25 12:13:26;;;;;;;63.97;40.55;;;7.60;99.90;;;;;;5039177;28;20044;-77
2021/11/25 12:16:32;;;;;;;58.28;36.42;;;7.60;99.90;;;;;;5054868;28;20055;-77
2021/11/25 12:19:01;;;;;;;61.40;38.33;;;7.70;99.90;;;;;;5035855;28;20052;-77
2021/11/25 12:21:44;;;;;;;57.60;36.25;;;7.80;99.90;;;;;;5071630;28;20037;-77
2021/11/25 12:24:15;;;;;;;62.92;38.38;;;7.80;99.90;;;;;;5053639;28;20044;-77
2021/11/25 12:27:17;;;;;;;58.90;37.83;;;7.80;99.90;;;;;;5051745;28;20032;-77
2021/11/25 12:30:10;;;;;;;59.00;36.38;;;7.80;99.90;;;;;;5070779;28;20047;-79
2021/11/25 12:32:41;;;;;;;65.20;39.03;;;7.80;99.90;;;;;;5019500;28;20397;-79
2021/11/25 12:35:19;;;;;;;60.97;37.80;;;7.90;99.90;;;;;;5069761;28;20041;-79
2021/11/25 12:38:03;;;;;;;62.42;36.97;;;7.90;99.90;;;;;;5048555;28;20032;-79
2021/11/25 12:40:32;;;;;;;61.25;39.05;;;7.90;99.90;;;;;;5068542;28;20493;-79
2021/11/25 12:43:01;;;;;;;65.93;39.17;;;7.90;99.90;;;;;;5064769;28;20040;-79
2021/11/25 12:45:57;;;;;;;68.43;40.33;;;7.90;99.90;;;;;;5054710;28;20709;-79
2021/11/25 12:48:42;;;;;;;53.95;33.97;;;8.00;99.90;;;;;;5037510;28;20086;-79
2021/11/25 12:51:22;;;;;;;61.67;37.70;;;8.00;99.90;;;;;;5070585;28;20054;-79
2021/11/25 12:53:55;;;;;;;64.10;38.80;;;8.10;99.90;;;;;;5067793;28;20028;-79
2021/11/25 12:56:21;;;;;;;66.20;40.63;;;8.20;99.90;;;;;;5050931;28;20029;-78
2021/11/25 12:58:48;;;;;;;54.38;34.80;;;8.20;99.90;;;;;;5062461;28;20043;-79
2021/11/25 13:01:37;;;;;;;64.68;39.97;;;8.30;99.90;;;;;;5054698;28;20036;-80